Nearby METAR Reports

 

YMEN - Melbourne/Essendon, Australia
Distance from station: WNW 102km
Updated: 18/06/2021 17:00
Overcast
Overcast
 Wind from S
Wind: S 19 km/h
Temperature: 12°C
Dew Point: 11°C
Humidity: 94%
Barometer: 1016 hPa
Clouds: Overcast
Visibility: 10 km
Cloud details: Mostly cloudy 1036 m
Overcast 1951 m
2021/06/18 07:00 YMEN 180700Z AUTO 19010KT 9999 // BKN034 OVC064 12/11 Q1016
YMML - Melbourne Intl A, Australia
Distance from station: WNW 111km
Updated: 18/06/2021 17:36
Mostly cloudy
Mostly cloudy
 Wind from SSW
Wind: SSW 20 km/h
Temperature: 12°C
Dew Point: 11°C
Humidity: 94%
Barometer: 1016 hPa
Clouds: Mostly cloudy
Visibility: 10 km
Cloud details: Few Clouds 335 m
Mostly cloudy 396 m
Mostly cloudy 1067 m
2021/06/18 07:36 YMML 180736Z 20011KT 9999 FEW011 BKN013 BKN035 12/11 Q1016 RF00.0/003.0
 
YMAV - Avalon Airport, Australia
Distance from station: W 135km
Updated: 18/06/2021 17:30
Overcast
Overcast
 Wind from SSW
Wind: SSW 15 km/h
Temperature: 12°C
Dew Point: 11°C
Humidity: 94%
Barometer: 1017 hPa
Clouds: Overcast
Visibility: 10 km
Cloud details: Mostly cloudy 1372 m
Overcast 1615 m
2021/06/18 07:30 YMAV 180730Z AUTO 20008KT 9999 // BKN045 OVC053 12/11 Q1017
YWGT - Wangaratta Arp, Australia
Distance from station: N 172km
Updated: 18/06/2021 17:00
Overcast
Overcast
 Wind from SW
Wind: SW 13 km/h
Temperature: 11°C
Dew Point: 9°C
Humidity: 88%
Barometer: 1012 hPa
Clouds: Overcast
Visibility: 10 km
Cloud details: Partly cloudy 2164 m
Mostly cloudy 2682 m
Overcast 3810 m
2021/06/18 07:00 YWGT 180700Z AUTO 23007KT 9999 // SCT071 BKN088 OVC125 11/09 Q1012